createdAt,value
2017-12-09T00:00:04.581Z,78.70
2017-12-09T00:02:32.258Z,78.70
2017-12-09T00:04:59.693Z,78.80
2017-12-09T00:07:27.903Z,78.60
2017-12-09T00:09:55.504Z,78.10
2017-12-09T00:12:23.122Z,78.20
2017-12-09T00:14:51.116Z,78.40
2017-12-09T00:17:18.583Z,78.40
2017-12-09T00:19:46.054Z,78.00
2017-12-09T00:22:14.273Z,78.30
2017-12-09T00:24:41.834Z,78.00
2017-12-09T00:27:09.288Z,78.10
2017-12-09T00:29:37.946Z,78.10
2017-12-09T00:32:05.401Z,78.20
2017-12-09T00:34:33.051Z,78.10
2017-12-09T00:37:01.275Z,78.50
2017-12-09T00:39:29.269Z,78.20
2017-12-09T00:41:56.712Z,78.00
2017-12-09T00:44:24.183Z,78.10
2017-12-09T00:46:51.672Z,78.10
2017-12-09T00:49:19.412Z,77.60
2017-12-09T00:51:46.936Z,77.80
2017-12-09T00:54:14.384Z,78.10
2017-12-09T00:56:41.857Z,78.00
2017-12-09T00:59:09.319Z,78.70
2017-12-09T01:01:36.762Z,78.00
2017-12-09T01:04:04.552Z,77.90
2017-12-09T01:06:32.057Z,77.90
2017-12-09T01:08:59.493Z,77.40
2017-12-09T01:11:27.865Z,77.90
2017-12-09T01:13:56.653Z,78.10
2017-12-09T01:16:36.747Z,77.90
2017-12-09T01:19:04.184Z,77.50
2017-12-09T01:21:31.648Z,77.90
2017-12-09T01:23:59.116Z,78.10
2017-12-09T01:26:27.314Z,78.30
2017-12-09T01:28:54.992Z,78.30
2017-12-09T01:31:22.473Z,78.50
2017-12-09T01:33:51.246Z,79.30
2017-12-09T01:36:19.489Z,79.00
2017-12-09T01:38:47.025Z,79.10
2017-12-09T01:41:14.561Z,78.80
2017-12-09T01:43:42.143Z,78.60
2017-12-09T01:46:09.577Z,78.70
2017-12-09T01:48:37.601Z,78.60
2017-12-09T01:51:05.048Z,78.70
2017-12-09T01:53:32.993Z,78.40
2017-12-09T01:56:00.690Z,78.70
2017-12-09T01:58:28.151Z,78.60
2017-12-09T02:00:56.315Z,78.30
2017-12-09T02:03:23.750Z,78.00
2017-12-09T02:05:51.225Z,78.00
2017-12-09T02:08:18.959Z,77.80
2017-12-09T02:10:46.400Z,77.90
2017-12-09T02:13:14.562Z,78.00
2017-12-09T02:15:42.556Z,77.40
2017-12-09T02:18:10.014Z,77.70
2017-12-09T02:20:38.641Z,77.50
2017-12-09T02:23:06.093Z,77.50
2017-12-09T02:25:33.561Z,77.00
2017-12-09T02:28:01.525Z,77.10
2017-12-09T02:30:29.380Z,77.20
2017-12-09T02:32:56.870Z,77.30
2017-12-09T02:35:25.172Z,77.00
2017-12-09T02:37:52.656Z,76.70
2017-12-09T02:40:20.202Z,76.80
2017-12-09T02:42:48.189Z,77.20
2017-12-09T02:45:15.653Z,77.00
2017-12-09T02:47:43.584Z,77.20
2017-12-09T02:50:11.145Z,77.20
2017-12-09T02:52:38.603Z,77.00
2017-12-09T02:55:06.057Z,77.10
2017-12-09T02:57:33.618Z,77.20
2017-12-09T03:00:02.029Z,77.20
2017-12-09T03:02:29.473Z,77.30
2017-12-09T03:04:56.985Z,76.70
2017-12-09T03:07:24.464Z,76.50
2017-12-09T03:09:51.953Z,76.70
2017-12-09T03:12:19.508Z,76.40
2017-12-09T03:14:47.381Z,76.60
2017-12-09T03:17:15.148Z,76.20
2017-12-09T03:19:42.806Z,76.40
2017-12-09T03:22:10.257Z,76.50
2017-12-09T03:24:38.504Z,76.10
2017-12-09T03:27:05.940Z,76.20
2017-12-09T03:29:33.753Z,76.50
2017-12-09T03:32:01.613Z,76.30
2017-12-09T03:34:29.089Z,76.60
2017-12-09T03:36:56.605Z,76.70
2017-12-09T03:39:24.060Z,76.70
2017-12-09T03:41:51.587Z,77.80
2017-12-09T03:44:19.865Z,77.10
2017-12-09T03:46:47.457Z,76.80
2017-12-09T03:49:15.405Z,77.10
2017-12-09T03:51:42.879Z,76.70
2017-12-09T03:54:10.310Z,76.40
2017-12-09T03:56:37.799Z,76.60
2017-12-09T03:59:06.171Z,76.50
2017-12-09T04:01:33.730Z,76.30
2017-12-09T04:04:01.162Z,76.30
2017-12-09T04:06:29.489Z,76.80
2017-12-09T04:08:57.088Z,76.50
2017-12-09T04:11:24.916Z,76.90
2017-12-09T04:13:52.883Z,76.70
2017-12-09T04:16:20.352Z,76.50
2017-12-09T04:18:48.508Z,76.50
2017-12-09T04:21:16.293Z,76.70
2017-12-09T04:23:43.765Z,76.60
2017-12-09T04:26:12.009Z,76.20
2017-12-09T04:28:39.872Z,75.90
2017-12-09T04:31:08.222Z,76.00
2017-12-09T04:33:35.644Z,75.40
2017-12-09T04:36:03.869Z,75.80
2017-12-09T04:38:31.327Z,75.40
2017-12-09T04:40:59.003Z,75.40
2017-12-09T04:43:26.458Z,74.90
2017-12-09T04:45:53.918Z,74.70
2017-12-09T04:48:21.986Z,74.60
2017-12-09T04:50:49.458Z,74.50
2017-12-09T04:53:16.905Z,74.70
2017-12-09T04:55:44.365Z,74.60
2017-12-09T04:58:12.280Z,74.90
2017-12-09T05:00:40.245Z,74.80
2017-12-09T05:03:07.921Z,74.70
2017-12-09T05:05:35.811Z,74.50
2017-12-09T05:08:03.265Z,74.10
2017-12-09T05:10:31.060Z,74.30
2017-12-09T05:12:59.110Z,74.00
2017-12-09T05:15:26.874Z,74.30
2017-12-09T05:17:54.945Z,74.00
2017-12-09T05:20:22.386Z,74.10
2017-12-09T05:22:49.865Z,74.20
2017-12-09T05:25:17.308Z,74.40
2017-12-09T05:27:44.797Z,74.40
2017-12-09T05:30:13.558Z,74.30
2017-12-09T05:32:41.185Z,74.00
2017-12-09T05:35:08.645Z,74.10
2017-12-09T05:37:36.097Z,74.20
2017-12-09T05:40:03.579Z,74.10
2017-12-09T05:42:31.009Z,74.20
2017-12-09T05:44:59.236Z,75.00
2017-12-09T05:47:27.289Z,74.80
2017-12-09T05:49:55.025Z,75.00
2017-12-09T05:52:22.473Z,75.10
2017-12-09T05:54:50.282Z,75.30
2017-12-09T05:57:18.749Z,77.30
2017-12-09T05:59:46.710Z,76.30
2017-12-09T06:02:14.349Z,76.60
2017-12-09T06:04:41.804Z,77.30
2017-12-09T06:07:09.288Z,77.70
2017-12-09T06:09:36.820Z,78.00
2017-12-09T06:12:04.346Z,78.30
2017-12-09T06:14:33.098Z,79.20
2017-12-09T06:17:00.570Z,78.80
2017-12-09T06:19:28.016Z,79.20
2017-12-09T06:21:55.672Z,79.80
2017-12-09T06:24:23.298Z,79.80
2017-12-09T06:26:50.769Z,79.60
2017-12-09T06:29:18.828Z,79.60
2017-12-09T06:31:46.306Z,80.00
2017-12-09T06:34:14.069Z,79.90
2017-12-09T06:36:42.280Z,80.90
2017-12-09T06:39:10.515Z,81.10
2017-12-09T06:41:37.959Z,80.70
2017-12-09T06:44:05.512Z,80.60
2017-12-09T06:46:32.949Z,80.30
2017-12-09T06:49:00.998Z,80.20
2017-12-09T06:51:29.325Z,80.40
2017-12-09T06:53:57.209Z,80.10
2017-12-09T06:56:24.656Z,80.20
2017-12-09T06:58:52.101Z,80.20
2017-12-09T07:01:19.572Z,80.30
2017-12-09T07:03:47.544Z,80.30
2017-12-09T07:06:15.316Z,80.20
2017-12-09T07:08:44.273Z,80.70
2017-12-09T07:11:11.976Z,80.40
2017-12-09T07:13:39.740Z,80.50
2017-12-09T07:16:07.189Z,80.50
2017-12-09T07:18:34.700Z,80.70
2017-12-09T07:21:02.400Z,80.60
2017-12-09T07:23:29.844Z,80.50
2017-12-09T07:25:57.299Z,80.40
2017-12-09T07:28:25.489Z,80.60
2017-12-09T07:30:53.046Z,80.70
2017-12-09T07:33:20.640Z,80.60
2017-12-09T07:35:49.099Z,81.00
2017-12-09T07:38:17.036Z,80.70
2017-12-09T07:40:44.599Z,80.10
2017-12-09T07:43:12.393Z,80.10
2017-12-09T07:45:40.052Z,80.00
2017-12-09T07:48:07.923Z,80.00
2017-12-09T07:50:36.166Z,79.80
2017-12-09T07:53:03.602Z,79.50
2017-12-09T07:55:31.065Z,79.30
2017-12-09T07:57:58.700Z,79.50
2017-12-09T08:00:26.169Z,79.60
2017-12-09T08:02:53.649Z,79.90
2017-12-09T08:05:21.549Z,79.80
2017-12-09T08:07:49.073Z,79.90
2017-12-09T08:10:16.750Z,79.90
2017-12-09T08:12:44.181Z,80.00
2017-12-09T08:15:12.097Z,80.00
2017-12-09T08:17:39.540Z,79.90
2017-12-09T08:20:07.069Z,79.70
2017-12-09T08:22:34.462Z,79.70
2017-12-09T08:25:01.993Z,80.10
2017-12-09T08:27:30.084Z,80.20
2017-12-09T08:29:57.965Z,80.10
2017-12-09T08:32:25.826Z,80.00
2017-12-09T08:34:53.900Z,80.20
2017-12-09T08:37:22.150Z,80.60
2017-12-09T08:39:49.693Z,80.20
2017-12-09T08:42:17.285Z,80.10
2017-12-09T08:44:44.734Z,80.50
2017-12-09T08:47:12.710Z,80.50
2017-12-09T08:49:40.407Z,80.50
2017-12-09T08:52:08.719Z,80.90
2017-12-09T08:54:36.214Z,80.40
2017-12-09T08:57:03.659Z,80.70
2017-12-09T08:59:31.121Z,80.60
2017-12-09T09:01:59.084Z,80.60
2017-12-09T09:04:26.524Z,80.70
2017-12-09T09:06:54.170Z,80.80
2017-12-09T09:09:21.656Z,80.60
2017-12-09T09:11:49.153Z,81.40
2017-12-09T09:14:17.905Z,81.20
2017-12-09T09:16:45.674Z,80.80
2017-12-09T09:19:13.603Z,80.50
2017-12-09T09:21:41.399Z,80.50
2017-12-09T09:24:09.269Z,80.60
2017-12-09T09:26:36.734Z,80.70
2017-12-09T09:29:04.789Z,81.00
2017-12-09T09:31:32.232Z,80.80
2017-12-09T09:33:59.804Z,80.70
2017-12-09T09:36:27.793Z,80.90
2017-12-09T09:38:56.032Z,80.40
2017-12-09T09:41:23.513Z,80.50
2017-12-09T09:43:50.963Z,80.60
2017-12-09T09:46:18.444Z,80.60
2017-12-09T09:48:47.118Z,81.00
2017-12-09T09:51:14.568Z,80.50
2017-12-09T09:53:42.241Z,80.70
2017-12-09T09:56:09.694Z,80.60
2017-12-09T09:58:37.163Z,81.00
2017-12-09T10:01:05.395Z,81.20
2017-12-09T10:03:33.074Z,80.80
2017-12-09T10:06:01.047Z,81.00
2017-12-09T10:08:28.567Z,81.10
2017-12-09T10:10:56.025Z,81.30
2017-12-09T10:13:24.130Z,81.10
2017-12-09T10:15:51.571Z,81.00
2017-12-09T10:18:19.550Z,81.20
2017-12-09T10:20:49.163Z,81.70
2017-12-09T10:23:17.963Z,81.40
2017-12-09T10:25:45.482Z,81.40
2017-12-09T10:28:13.616Z,81.50
2017-12-09T10:30:41.895Z,81.80
2017-12-09T10:33:10.217Z,81.20
2017-12-09T10:35:37.897Z,80.80
2017-12-09T10:38:05.760Z,81.00
2017-12-09T10:40:33.205Z,81.20
2017-12-09T10:43:00.736Z,81.10
2017-12-09T10:45:28.213Z,81.40
2017-12-09T10:47:56.236Z,81.20
2017-12-09T10:50:24.478Z,81.70
2017-12-09T10:52:52.475Z,81.30
2017-12-09T10:55:20.397Z,81.40
2017-12-09T10:57:48.673Z,81.80
2017-12-09T11:00:16.263Z,81.40
2017-12-09T11:02:43.777Z,81.10
2017-12-09T11:05:11.440Z,81.00
2017-12-09T11:07:39.108Z,80.70
2017-12-09T11:10:06.740Z,81.10
2017-12-09T11:12:34.592Z,81.40
2017-12-09T11:15:08.205Z,82.10
2017-12-09T11:17:36.509Z,81.80
2017-12-09T11:20:04.511Z,81.40
2017-12-09T11:22:31.968Z,81.00
2017-12-09T11:24:59.513Z,81.60
2017-12-09T11:27:27.725Z,81.50
2017-12-09T11:29:56.409Z,81.60
2017-12-09T11:32:23.932Z,81.20
2017-12-09T11:34:51.417Z,80.40
2017-12-09T11:37:18.936Z,80.30
2017-12-09T11:39:46.602Z,80.30
2017-12-09T11:42:15.086Z,80.20
2017-12-09T11:44:43.164Z,80.20
2017-12-09T11:47:11.483Z,80.20
2017-12-09T11:49:38.993Z,80.20
2017-12-09T11:52:06.453Z,80.10
2017-12-09T11:54:33.902Z,80.30
2017-12-09T11:57:01.383Z,80.30
2017-12-09T11:59:28.847Z,80.20
2017-12-09T12:01:56.723Z,80.30
2017-12-09T12:04:24.707Z,80.30
2017-12-09T12:06:52.958Z,81.20
2017-12-09T12:09:20.406Z,80.80
2017-12-09T12:11:48.482Z,80.90
2017-12-09T12:14:16.304Z,80.60
2017-12-09T12:16:44.077Z,80.60
2017-12-09T12:19:11.695Z,80.70
2017-12-09T12:21:40.015Z,81.00
2017-12-09T12:24:07.569Z,80.70
2017-12-09T12:26:35.521Z,80.70
2017-12-09T12:29:03.356Z,80.60
2017-12-09T12:31:31.596Z,81.20
2017-12-09T12:33:59.585Z,80.70
2017-12-09T12:36:27.093Z,81.10
2017-12-09T12:38:54.576Z,81.00
2017-12-09T12:41:22.074Z,80.70
2017-12-09T12:43:50.352Z,81.40
2017-12-09T12:46:18.646Z,80.80
2017-12-09T12:48:46.432Z,80.40
2017-12-09T12:51:13.993Z,80.30
2017-12-09T12:53:41.961Z,80.40
2017-12-09T12:56:09.522Z,80.90
2017-12-09T12:58:37.063Z,80.80
2017-12-09T13:01:05.098Z,80.10
2017-12-09T13:03:33.314Z,80.80
2017-12-09T13:06:00.829Z,79.80
2017-12-09T13:08:28.720Z,79.60
2017-12-09T13:10:56.957Z,79.70
2017-12-09T13:13:25.233Z,79.30
2017-12-09T13:15:52.899Z,79.60
2017-12-09T13:18:20.416Z,79.80
2017-12-09T13:20:47.877Z,79.80
2017-12-09T13:23:15.777Z,79.90
2017-12-09T13:25:43.252Z,79.80
2017-12-09T13:28:12.322Z,80.10
2017-12-09T13:30:39.774Z,79.70
2017-12-09T13:33:07.241Z,79.80
2017-12-09T13:35:34.762Z,79.80
2017-12-09T13:38:02.221Z,79.50
2017-12-09T13:40:30.024Z,79.70
2017-12-09T13:42:57.504Z,79.90
2017-12-09T13:45:25.830Z,80.40
2017-12-09T13:47:53.583Z,80.00
2017-12-09T13:50:21.051Z,80.20
2017-12-09T13:52:48.724Z,80.20
2017-12-09T13:55:16.396Z,81.00
2017-12-09T13:57:44.635Z,80.30
2017-12-09T14:00:12.123Z,80.40
2017-12-09T14:02:40.164Z,80.40
2017-12-09T14:05:08.328Z,80.30
2017-12-09T14:07:36.021Z,80.20
2017-12-09T14:10:03.488Z,80.10
2017-12-09T14:12:31.908Z,80.20
2017-12-09T14:15:00.481Z,81.00
2017-12-09T14:17:28.700Z,80.90
2017-12-09T14:20:00.574Z,80.50
2017-12-09T14:22:28.011Z,80.70
2017-12-09T14:24:55.618Z,80.60
2017-12-09T14:27:23.061Z,80.60
2017-12-09T14:29:51.096Z,80.60
2017-12-09T14:32:19.167Z,80.60
2017-12-09T14:34:46.623Z,81.20
2017-12-09T14:37:14.087Z,80.70
2017-12-09T14:39:41.641Z,80.80
2017-12-09T14:42:09.114Z,80.80
2017-12-09T14:44:36.592Z,80.90
2017-12-09T14:47:04.820Z,80.80
2017-12-09T14:49:32.273Z,80.80
2017-12-09T14:52:00.176Z,80.80
2017-12-09T14:54:28.180Z,81.00
2017-12-09T14:56:56.427Z,81.20
2017-12-09T14:59:24.056Z,80.80
2017-12-09T15:01:52.070Z,80.90
2017-12-09T15:04:19.922Z,80.70
2017-12-09T15:06:47.449Z,80.50
2017-12-09T15:09:15.047Z,80.70
2017-12-09T15:11:42.565Z,80.90
2017-12-09T15:14:10.569Z,81.10
2017-12-09T15:16:38.065Z,81.30
2017-12-09T15:19:05.708Z,81.50
2017-12-09T15:21:34.473Z,82.10
2017-12-09T15:24:01.937Z,81.70
2017-12-09T15:26:29.590Z,81.30
2017-12-09T15:28:57.460Z,81.30
2017-12-09T15:31:25.119Z,80.90
2017-12-09T15:33:52.644Z,80.90
2017-12-09T15:36:20.111Z,80.90
2017-12-09T15:38:47.760Z,81.00
2017-12-09T15:41:15.235Z,80.80
2017-12-09T15:43:42.917Z,80.60
2017-12-09T15:46:10.933Z,80.50
2017-12-09T15:48:39.150Z,80.30
2017-12-09T15:51:07.911Z,80.30
2017-12-09T15:53:35.405Z,80.20
2017-12-09T15:56:02.874Z,80.30
2017-12-09T15:58:31.113Z,81.70
2017-12-09T16:00:58.876Z,81.00
2017-12-09T16:03:26.383Z,81.20
2017-12-09T16:05:54.876Z,82.00
2017-12-09T16:08:23.104Z,81.70
2017-12-09T16:10:50.733Z,81.70
2017-12-09T16:13:18.864Z,81.60
2017-12-09T16:15:47.695Z,82.00
2017-12-09T16:18:15.164Z,81.60
2017-12-09T16:20:42.629Z,81.70
2017-12-09T16:23:10.092Z,81.80
2017-12-09T16:25:37.766Z,82.00
2017-12-09T16:28:05.253Z,81.90
2017-12-09T16:30:34.327Z,82.00
2017-12-09T16:33:01.792Z,81.70
2017-12-09T16:35:29.690Z,82.00
2017-12-09T16:37:57.141Z,81.80
2017-12-09T16:40:25.571Z,81.50
2017-12-09T16:42:53.013Z,81.40
2017-12-09T16:45:20.584Z,81.50
2017-12-09T16:47:48.650Z,81.10
2017-12-09T16:50:16.105Z,81.40
2017-12-09T16:52:43.669Z,81.40
2017-12-09T16:55:11.207Z,81.20
2017-12-09T16:57:38.683Z,81.10
2017-12-09T17:00:06.452Z,80.90
2017-12-09T17:02:34.456Z,80.60
2017-12-09T17:05:03.526Z,80.60
2017-12-09T17:07:30.978Z,80.10
2017-12-09T17:09:58.423Z,80.30
2017-12-09T17:12:25.950Z,80.40
2017-12-09T17:14:53.848Z,80.50
2017-12-09T17:17:21.431Z,80.50
2017-12-09T17:19:49.693Z,81.30
2017-12-09T17:22:17.515Z,80.70
2017-12-09T17:24:45.635Z,80.60
2017-12-09T17:27:13.081Z,80.50
2017-12-09T17:29:41.141Z,80.20
2017-12-09T17:32:08.595Z,80.90
2017-12-09T17:34:36.135Z,80.90
2017-12-09T17:37:03.591Z,81.00
2017-12-09T17:39:31.113Z,81.10
2017-12-09T17:41:59.419Z,81.00
2017-12-09T17:44:27.387Z,80.70
2017-12-09T17:46:55.739Z,80.80
2017-12-09T17:49:23.951Z,81.10
2017-12-09T17:51:51.472Z,80.70
2017-12-09T17:54:18.928Z,80.70
2017-12-09T17:56:47.499Z,81.30
2017-12-09T17:59:14.929Z,80.90
2017-12-09T18:01:42.449Z,81.00
2017-12-09T18:04:10.552Z,80.40
2017-12-09T18:06:38.317Z,80.40
2017-12-09T18:09:05.771Z,80.30
2017-12-09T18:11:33.217Z,80.30
2017-12-09T18:14:01.014Z,80.10
2017-12-09T18:16:29.321Z,80.10
2017-12-09T18:18:57.349Z,79.70
2017-12-09T18:21:25.204Z,79.80
2017-12-09T18:23:53.551Z,80.10
2017-12-09T18:26:21.041Z,79.80
2017-12-09T18:28:50.378Z,79.80
2017-12-09T18:31:18.584Z,79.50
2017-12-09T18:33:46.069Z,79.20
2017-12-09T18:36:13.598Z,79.40
2017-12-09T18:38:41.188Z,79.60
2017-12-09T18:41:08.693Z,79.70
2017-12-09T18:43:36.762Z,79.60
2017-12-09T18:46:04.213Z,79.80
2017-12-09T18:48:32.164Z,79.50
2017-12-09T18:50:59.607Z,79.30
2017-12-09T18:53:27.125Z,79.30
2017-12-09T18:55:54.626Z,79.40
2017-12-09T18:58:22.143Z,79.00
2017-12-09T19:00:49.590Z,79.20
2017-12-09T19:03:17.945Z,79.10
2017-12-09T19:05:45.534Z,78.50
2017-12-09T19:08:14.036Z,78.50
2017-12-09T19:10:41.483Z,78.80
2017-12-09T19:13:09.621Z,78.80
2017-12-09T19:15:37.423Z,78.80
2017-12-09T19:18:04.948Z,78.00
2017-12-09T19:20:32.523Z,78.00
2017-12-09T19:23:00.100Z,78.00
2017-12-09T19:25:27.622Z,77.90
2017-12-09T19:27:55.239Z,77.60
2017-12-09T19:30:23.625Z,78.00
2017-12-09T19:32:51.286Z,77.50
2017-12-09T19:35:19.616Z,78.30
2017-12-09T19:37:47.671Z,77.60
2017-12-09T19:40:15.469Z,77.90
2017-12-09T19:42:43.422Z,77.40
2017-12-09T19:45:10.899Z,77.20
2017-12-09T19:47:38.776Z,76.80
2017-12-09T19:50:06.269Z,76.70
2017-12-09T19:52:34.841Z,77.40
2017-12-09T19:55:03.104Z,77.50
2017-12-09T19:57:31.945Z,77.20
2017-12-09T19:59:59.851Z,76.70
2017-12-09T20:02:27.338Z,76.90
2017-12-09T20:04:55.592Z,76.90
2017-12-09T20:07:23.205Z,76.50
2017-12-09T20:09:50.661Z,76.40
2017-12-09T20:12:18.220Z,76.30
2017-12-09T20:14:45.949Z,76.60
2017-12-09T20:17:14.260Z,76.80
2017-12-09T20:19:41.715Z,76.50
2017-12-09T20:22:09.442Z,76.30
2017-12-09T20:24:37.765Z,76.60
2017-12-09T20:27:05.290Z,76.20
2017-12-09T20:29:33.937Z,75.90
2017-12-09T20:32:01.423Z,75.40
2017-12-09T20:34:29.733Z,75.90
2017-12-09T20:36:57.272Z,75.50
2017-12-09T20:39:24.723Z,75.40
2017-12-09T20:41:52.854Z,75.40
2017-12-09T20:44:20.333Z,75.20
2017-12-09T20:46:49.274Z,76.20
2017-12-09T20:49:17.159Z,75.20
2017-12-09T20:51:44.793Z,75.50
2017-12-09T20:54:12.765Z,75.60
2017-12-09T20:56:40.344Z,75.90
2017-12-09T20:59:07.823Z,75.50
2017-12-09T21:01:35.276Z,75.80
2017-12-09T21:04:03.651Z,76.00
2017-12-09T21:06:31.104Z,75.70
2017-12-09T21:08:58.550Z,75.30
2017-12-09T21:11:26.878Z,75.50
2017-12-09T21:13:54.702Z,75.30
2017-12-09T21:16:22.830Z,75.60
2017-12-09T21:18:50.430Z,75.40
2017-12-09T21:21:17.956Z,75.40
2017-12-09T21:23:45.412Z,75.60
2017-12-09T21:26:13.083Z,75.30
2017-12-09T21:28:40.984Z,75.40
2017-12-09T21:31:08.474Z,75.20
2017-12-09T21:33:35.987Z,75.00
2017-12-09T21:36:03.976Z,75.30
2017-12-09T21:38:32.791Z,75.80
2017-12-09T21:41:00.996Z,75.60
2017-12-09T21:43:28.491Z,75.20
2017-12-09T21:45:57.333Z,75.30
2017-12-09T21:48:25.389Z,75.40
2017-12-09T21:50:52.829Z,76.00
2017-12-09T21:53:20.340Z,76.40
2017-12-09T21:55:47.916Z,76.50
2017-12-09T21:58:16.356Z,76.40
2017-12-09T22:00:43.813Z,76.20
2017-12-09T22:03:11.351Z,76.00
2017-12-09T22:05:39.235Z,75.70
2017-12-09T22:08:06.724Z,75.40
2017-12-09T22:10:34.526Z,75.30
2017-12-09T22:13:02.836Z,75.90
2017-12-09T22:15:30.779Z,75.50
2017-12-09T22:17:58.228Z,76.10
2017-12-09T22:20:26.460Z,77.00
2017-12-09T22:22:53.961Z,76.60
2017-12-09T22:25:23.020Z,77.00
2017-12-09T22:27:50.485Z,76.60
2017-12-09T22:30:18.463Z,76.70
2017-12-09T22:32:45.954Z,76.60
2017-12-09T22:35:13.434Z,77.10
2017-12-09T22:37:40.929Z,76.10
2017-12-09T22:40:08.790Z,76.00
2017-12-09T22:42:36.440Z,75.80
2017-12-09T22:45:03.924Z,75.80
2017-12-09T22:47:32.825Z,75.90
2017-12-09T22:50:01.054Z,75.70
2017-12-09T22:52:28.539Z,75.30
2017-12-09T22:54:56.044Z,75.40
2017-12-09T22:57:23.911Z,75.30
2017-12-09T22:59:51.472Z,75.40
2017-12-09T23:02:19.702Z,75.50
2017-12-09T23:04:47.928Z,75.10
2017-12-09T23:07:15.500Z,74.70
2017-12-09T23:09:43.021Z,74.80
2017-12-09T23:12:10.628Z,74.90
2017-12-09T23:14:38.726Z,74.60
2017-12-09T23:17:07.045Z,75.00
2017-12-09T23:19:34.753Z,74.60
2017-12-09T23:22:02.190Z,74.60
2017-12-09T23:24:29.870Z,74.40
2017-12-09T23:26:57.319Z,74.40
2017-12-09T23:29:25.453Z,74.50
2017-12-09T23:31:52.906Z,74.40
2017-12-09T23:34:20.979Z,74.50
2017-12-09T23:36:48.418Z,74.80
2017-12-09T23:39:16.042Z,74.80
2017-12-09T23:41:43.492Z,74.60
2017-12-09T23:44:10.956Z,74.50
2017-12-09T23:46:39.679Z,75.30
2017-12-09T23:49:07.618Z,74.40
2017-12-09T23:51:35.857Z,74.70
2017-12-09T23:54:03.399Z,74.30
2017-12-09T23:56:30.866Z,74.10
2017-12-09T23:58:58.411Z,74.50
